createdAt,value
2023-05-10T00:01:32.311Z,51.48
2023-05-10T00:03:59.851Z,51.60
2023-05-10T00:06:27.811Z,51.40
2023-05-10T00:08:55.295Z,51.37
2023-05-10T00:11:24.128Z,51.50
2023-05-10T00:13:54.322Z,51.74
2023-05-10T00:16:21.994Z,52.27
2023-05-10T00:18:49.507Z,52.68
2023-05-10T00:21:16.983Z,53.16
2023-05-10T00:23:44.463Z,53.79
2023-05-10T00:26:12.008Z,54.00
2023-05-10T00:28:42.317Z,53.94
2023-05-10T00:31:09.835Z,53.92
2023-05-10T00:33:37.344Z,53.97
2023-05-10T00:36:05.387Z,54.02
2023-05-10T00:38:33.027Z,53.98
2023-05-10T00:41:00.529Z,54.31
2023-05-10T00:43:31.802Z,54.38
2023-05-10T00:46:01.455Z,54.25
2023-05-10T00:48:30.644Z,54.21
2023-05-10T00:50:58.277Z,54.81
2023-05-10T00:53:26.499Z,54.78
2023-05-10T00:55:54.080Z,54.66
2023-05-10T00:58:21.906Z,54.43
2023-05-10T01:00:49.992Z,54.32
2023-05-10T01:03:19.066Z,54.52
2023-05-10T01:05:46.672Z,54.75
2023-05-10T01:08:14.206Z,54.65
2023-05-10T01:10:42.090Z,54.34
2023-05-10T01:13:09.730Z,54.54
2023-05-10T01:15:37.665Z,54.60
2023-05-10T01:18:05.385Z,54.73
2023-05-10T01:20:38.141Z,54.65
2023-05-10T01:23:26.813Z,54.67
2023-05-10T01:26:09.841Z,55.36
2023-05-10T01:28:53.969Z,56.20
2023-05-10T01:31:25.273Z,55.54
2023-05-10T01:33:57.782Z,55.66
2023-05-10T01:36:29.685Z,55.75
2023-05-10T01:39:01.276Z,55.95
2023-05-10T01:41:35.220Z,56.26
2023-05-10T01:44:07.116Z,56.13
2023-05-10T01:46:37.700Z,56.07
2023-05-10T01:49:11.472Z,56.41
2023-05-10T01:51:42.062Z,56.53
2023-05-10T01:54:10.600Z,56.49
2023-05-10T01:56:39.758Z,56.44
2023-05-10T01:59:11.254Z,56.46
2023-05-10T02:01:39.421Z,56.72
2023-05-10T02:04:09.856Z,56.65
2023-05-10T02:06:38.092Z,56.71
2023-05-10T02:09:06.186Z,56.66
2023-05-10T02:11:34.216Z,56.58
2023-05-10T02:14:02.299Z,56.71
2023-05-10T02:16:31.950Z,56.87
2023-05-10T02:19:01.302Z,56.80
2023-05-10T02:21:30.508Z,56.77
2023-05-10T02:23:59.217Z,56.67
2023-05-10T02:26:27.533Z,56.78
2023-05-10T02:28:55.711Z,57.22
2023-05-10T02:31:23.900Z,56.97
2023-05-10T02:33:52.497Z,57.07
2023-05-10T02:36:22.144Z,56.73
2023-05-10T02:38:51.855Z,56.65
2023-05-10T02:41:20.217Z,56.73
2023-05-10T02:43:49.331Z,57.11
2023-05-10T02:46:16.863Z,57.00
2023-05-10T02:48:44.352Z,57.08
2023-05-10T02:51:14.758Z,57.04
2023-05-10T02:53:43.302Z,57.23
2023-05-10T02:56:16.083Z,57.12
2023-05-10T02:58:43.571Z,57.42
2023-05-10T03:01:11.459Z,57.35
2023-05-10T03:03:39.659Z,57.46
2023-05-10T03:06:07.424Z,57.54
2023-05-10T03:08:35.600Z,57.58
2023-05-10T03:11:23.392Z,57.64
2023-05-10T03:13:59.059Z,57.59
2023-05-10T03:16:29.585Z,57.53
2023-05-10T03:19:04.665Z,57.12
2023-05-10T03:21:32.847Z,56.97
2023-05-10T03:24:07.589Z,56.81
2023-05-10T03:26:39.034Z,56.95
2023-05-10T03:29:12.623Z,56.97
2023-05-10T03:31:40.290Z,57.01
2023-05-10T03:34:08.134Z,57.31
2023-05-10T03:36:36.033Z,57.48
2023-05-10T03:39:03.708Z,57.55
2023-05-10T03:41:31.723Z,57.04
2023-05-10T03:44:00.710Z,57.30
2023-05-10T03:46:29.872Z,57.60
2023-05-10T03:48:57.399Z,57.87
2023-05-10T03:51:28.891Z,57.60
2023-05-10T03:53:56.486Z,57.67
2023-05-10T03:56:24.163Z,57.93
2023-05-10T03:58:51.678Z,58.38
2023-05-10T04:01:20.536Z,58.09
2023-05-10T04:03:48.247Z,58.04
2023-05-10T04:06:16.065Z,58.39
2023-05-10T04:08:43.568Z,58.57
2023-05-10T04:11:12.414Z,58.25
2023-05-10T04:13:39.983Z,58.51
2023-05-10T04:16:07.999Z,58.36
2023-05-10T04:18:36.850Z,58.20
2023-05-10T04:21:04.537Z,58.34
2023-05-10T04:23:32.002Z,58.56
2023-05-10T04:26:02.887Z,58.81
2023-05-10T04:28:30.464Z,58.89
2023-05-10T04:31:03.373Z,58.89
2023-05-10T04:33:30.976Z,59.05
2023-05-10T04:35:59.889Z,58.96
2023-05-10T04:38:27.852Z,59.06
2023-05-10T04:40:55.781Z,59.17
2023-05-10T04:43:23.451Z,59.18
2023-05-10T04:45:51.242Z,59.29
2023-05-10T04:48:18.792Z,59.55
2023-05-10T04:50:46.277Z,59.53
2023-05-10T04:53:16.053Z,59.25
2023-05-10T04:55:43.604Z,59.34
2023-05-10T04:58:11.194Z,59.06
2023-05-10T05:00:38.680Z,59.12
2023-05-10T05:03:06.280Z,59.04
2023-05-10T05:05:33.865Z,59.07
2023-05-10T05:08:01.718Z,59.07
2023-05-10T05:10:30.878Z,58.77
2023-05-10T05:12:58.404Z,58.45
2023-05-10T05:15:25.943Z,58.72
2023-05-10T05:17:53.522Z,58.41
2023-05-10T05:20:21.091Z,58.60
2023-05-10T05:22:48.577Z,58.55
2023-05-10T05:25:16.269Z,58.99
2023-05-10T05:27:45.148Z,58.43
2023-05-10T05:30:13.490Z,58.60
2023-05-10T05:32:41.057Z,58.63
2023-05-10T05:35:09.361Z,58.80
2023-05-10T05:37:38.398Z,58.88
2023-05-10T05:40:07.007Z,58.84
2023-05-10T05:42:34.537Z,58.83
2023-05-10T05:45:03.357Z,58.49
2023-05-10T05:47:31.016Z,58.84
2023-05-10T05:49:58.552Z,58.96
2023-05-10T05:52:26.076Z,59.11
2023-05-10T05:54:53.628Z,59.05
2023-05-10T05:57:21.151Z,59.04
2023-05-10T05:59:48.768Z,59.34
2023-05-10T06:02:17.676Z,59.68
2023-05-10T06:04:45.204Z,59.72
2023-05-10T06:07:12.806Z,60.45
2023-05-10T06:09:40.339Z,61.11
2023-05-10T06:12:07.969Z,62.55
2023-05-10T06:14:35.444Z,63.89
2023-05-10T06:17:05.035Z,64.73
2023-05-10T06:19:35.577Z,65.73
2023-05-10T06:22:03.536Z,66.25
2023-05-10T06:24:31.068Z,67.00
2023-05-10T06:27:01.145Z,68.40
2023-05-10T06:29:28.743Z,69.69
2023-05-10T06:31:56.383Z,70.65
2023-05-10T06:34:24.011Z,71.74
2023-05-10T06:36:52.924Z,72.29
2023-05-10T06:39:20.739Z,72.93
2023-05-10T06:41:48.236Z,74.17
2023-05-10T06:44:15.782Z,73.87
2023-05-10T06:46:43.551Z,74.30
2023-05-10T06:49:11.112Z,75.91
2023-05-10T06:51:38.714Z,76.35
2023-05-10T06:54:07.789Z,76.26
2023-05-10T06:56:35.375Z,75.72
2023-05-10T06:59:02.960Z,76.49
2023-05-10T07:01:30.491Z,76.88
2023-05-10T07:03:57.978Z,77.17
2023-05-10T07:06:33.555Z,77.04
2023-05-10T07:09:01.579Z,76.92
2023-05-10T07:11:30.614Z,78.17
2023-05-10T07:13:58.115Z,76.45
2023-05-10T07:16:25.823Z,77.00
2023-05-10T07:18:54.499Z,76.56
2023-05-10T07:21:22.119Z,78.38
2023-05-10T07:23:49.618Z,76.69
2023-05-10T07:26:17.188Z,76.77
2023-05-10T07:28:45.992Z,77.06
2023-05-10T07:31:13.516Z,78.70
2023-05-10T07:33:40.996Z,78.25
2023-05-10T07:36:08.922Z,78.76
2023-05-10T07:38:37.542Z,78.16
2023-05-10T07:41:06.899Z,79.45
2023-05-10T07:43:34.466Z,79.36
2023-05-10T07:46:03.672Z,78.69
2023-05-10T07:48:31.249Z,78.69
2023-05-10T07:50:58.754Z,79.14
2023-05-10T07:53:27.745Z,80.02
2023-05-10T07:55:56.695Z,78.92
2023-05-10T07:58:24.286Z,78.49
2023-05-10T08:00:51.828Z,78.75
2023-05-10T08:03:20.807Z,78.28
2023-05-10T08:05:49.626Z,79.64
2023-05-10T08:08:17.112Z,78.42
2023-05-10T08:10:45.023Z,80.38
2023-05-10T08:13:12.520Z,78.97
2023-05-10T08:15:40.049Z,79.02
2023-05-10T08:18:07.889Z,79.40
2023-05-10T08:20:36.806Z,80.10
2023-05-10T08:23:04.473Z,80.22
2023-05-10T08:25:32.080Z,78.41
2023-05-10T08:27:59.856Z,78.88
2023-05-10T08:30:27.388Z,78.50
2023-05-10T08:33:01.084Z,78.05
2023-05-10T08:35:28.652Z,79.39
2023-05-10T08:37:57.528Z,78.20
2023-05-10T08:40:26.276Z,79.28
2023-05-10T08:42:57.881Z,79.98
2023-05-10T08:45:25.643Z,79.75
2023-05-10T08:47:54.261Z,79.57
2023-05-10T08:50:22.866Z,79.82
2023-05-10T08:52:55.251Z,81.25
2023-05-10T08:55:25.378Z,80.48
2023-05-10T08:57:53.045Z,79.98
2023-05-10T09:00:22.103Z,81.44
2023-05-10T09:02:51.189Z,79.84
2023-05-10T09:05:19.152Z,80.39
2023-05-10T09:07:47.126Z,81.01
2023-05-10T09:10:15.241Z,81.22
2023-05-10T09:12:46.223Z,81.16
2023-05-10T09:15:15.944Z,82.42
2023-05-10T09:17:44.277Z,82.40
2023-05-10T09:20:12.149Z,82.68
2023-05-10T09:22:39.848Z,82.68
2023-05-10T09:25:08.826Z,82.94
2023-05-10T09:27:36.831Z,82.30
2023-05-10T09:30:07.754Z,82.92
2023-05-10T09:32:39.493Z,83.35
2023-05-10T09:35:10.965Z,82.81
2023-05-10T09:37:38.506Z,83.07
2023-05-10T09:40:10.132Z,83.19
2023-05-10T09:42:37.652Z,83.81
2023-05-10T09:45:07.839Z,83.60
2023-05-10T09:47:36.087Z,83.51
2023-05-10T09:50:05.471Z,83.71
2023-05-10T09:52:33.820Z,84.47
2023-05-10T09:55:01.425Z,83.03
2023-05-10T09:57:28.968Z,83.62
2023-05-10T09:59:58.421Z,83.09
2023-05-10T10:02:31.547Z,83.80
2023-05-10T10:04:59.390Z,83.96
2023-05-10T10:07:28.114Z,83.77
2023-05-10T10:09:55.785Z,84.14
2023-05-10T10:12:23.338Z,84.46
2023-05-10T10:14:51.829Z,84.50
2023-05-10T10:17:19.535Z,84.20
2023-05-10T10:19:48.916Z,84.29
2023-05-10T10:22:16.434Z,83.96
2023-05-10T10:24:44.007Z,84.74
2023-05-10T10:27:23.653Z,85.17
2023-05-10T10:29:58.368Z,83.92
2023-05-10T10:32:29.827Z,86.05
2023-05-10T10:34:58.917Z,84.21
2023-05-10T10:37:43.304Z,84.18
2023-05-10T10:40:24.454Z,84.24
2023-05-10T10:42:52.199Z,84.90
2023-05-10T10:45:19.987Z,83.93
2023-05-10T10:47:47.855Z,84.29
2023-05-10T10:50:17.256Z,83.63
2023-05-10T10:52:45.558Z,83.53
2023-05-10T10:55:14.546Z,84.47
2023-05-10T10:57:47.156Z,84.75
2023-05-10T11:00:27.044Z,84.11
2023-05-10T11:02:56.220Z,84.16
2023-05-10T11:05:44.179Z,83.08
2023-05-10T11:08:14.138Z,83.29
2023-05-10T11:10:42.672Z,82.86
2023-05-10T11:13:11.169Z,83.52
2023-05-10T11:15:40.304Z,82.54
2023-05-10T11:18:20.835Z,82.78
2023-05-10T11:20:53.921Z,82.03
2023-05-10T11:23:22.276Z,82.29
2023-05-10T11:25:50.826Z,82.40
2023-05-10T11:28:19.640Z,82.05
2023-05-10T11:30:47.570Z,81.58
2023-05-10T11:33:20.325Z,81.76
2023-05-10T11:35:48.297Z,81.91
2023-05-10T11:38:17.404Z,81.23
2023-05-10T11:40:45.371Z,80.93
2023-05-10T11:43:13.280Z,80.85
2023-05-10T11:45:43.136Z,81.00
2023-05-10T11:48:10.689Z,79.14
2023-05-10T11:50:38.300Z,78.94
2023-05-10T11:53:06.315Z,79.63
2023-05-10T11:55:36.693Z,78.91
2023-05-10T11:58:04.643Z,78.40
2023-05-10T12:00:32.506Z,78.58
2023-05-10T12:03:02.622Z,78.09
2023-05-10T12:05:30.651Z,77.75
2023-05-10T12:08:12.733Z,77.56
2023-05-10T12:10:41.658Z,78.18
2023-05-10T12:13:13.340Z,77.05
2023-05-10T12:15:40.893Z,77.14
2023-05-10T12:18:11.353Z,77.10
2023-05-10T12:20:39.702Z,77.28
2023-05-10T12:23:10.509Z,76.33
2023-05-10T12:25:40.073Z,76.41
2023-05-10T12:28:10.591Z,76.75
2023-05-10T12:30:38.449Z,76.75
2023-05-10T12:33:10.258Z,77.13
2023-05-10T12:35:46.426Z,76.21
2023-05-10T12:38:31.583Z,75.25
2023-05-10T12:41:00.250Z,75.50
2023-05-10T12:43:29.195Z,75.87
2023-05-10T12:45:56.721Z,75.75
2023-05-10T12:48:24.552Z,75.91
2023-05-10T12:50:52.090Z,76.49
2023-05-10T12:53:19.583Z,76.63
2023-05-10T12:55:47.166Z,76.95
2023-05-10T12:58:31.573Z,77.76
2023-05-10T13:01:03.846Z,78.56
2023-05-10T13:03:31.474Z,78.80
2023-05-10T13:05:59.115Z,80.23
2023-05-10T13:08:30.680Z,79.94
2023-05-10T13:10:58.173Z,80.80
2023-05-10T13:13:25.695Z,81.27
2023-05-10T13:15:53.195Z,81.28
2023-05-10T13:18:22.163Z,81.45
2023-05-10T13:20:50.571Z,82.31
2023-05-10T13:23:18.129Z,82.06
2023-05-10T13:25:45.626Z,83.10
2023-05-10T13:28:13.116Z,82.56
2023-05-10T13:30:40.603Z,84.31
2023-05-10T13:33:08.194Z,85.57
2023-05-10T13:35:37.124Z,85.21
2023-05-10T13:38:04.655Z,84.97
2023-05-10T13:40:32.238Z,85.07
2023-05-10T13:42:59.785Z,84.06
2023-05-10T13:45:27.280Z,84.62
2023-05-10T13:47:55.098Z,85.76
2023-05-10T13:50:22.649Z,84.90
2023-05-10T13:52:51.509Z,84.85
2023-05-10T13:55:19.428Z,83.82
2023-05-10T13:57:47.283Z,84.34
2023-05-10T14:00:15.692Z,83.94
2023-05-10T14:02:43.315Z,82.92
2023-05-10T14:05:11.126Z,83.72
2023-05-10T14:07:38.895Z,83.71
2023-05-10T14:10:08.435Z,83.57
2023-05-10T14:12:36.050Z,83.74
2023-05-10T14:15:03.801Z,83.73
2023-05-10T14:17:31.430Z,83.58
2023-05-10T14:19:59.109Z,83.67
2023-05-10T14:22:26.774Z,83.30
2023-05-10T14:24:54.313Z,83.52
2023-05-10T14:27:24.310Z,81.99
2023-05-10T14:29:52.012Z,83.06
2023-05-10T14:32:19.692Z,82.65
2023-05-10T14:34:47.252Z,82.46
2023-05-10T14:37:15.995Z,82.79
2023-05-10T14:39:43.738Z,82.63
2023-05-10T14:42:12.024Z,82.01
2023-05-10T14:44:40.828Z,82.53
2023-05-10T14:47:09.425Z,82.12
2023-05-10T14:49:39.072Z,82.48
2023-05-10T14:52:06.580Z,82.53
2023-05-10T14:54:34.427Z,82.78
2023-05-10T14:57:02.312Z,82.90
2023-05-10T14:59:29.781Z,82.32
2023-05-10T15:01:59.005Z,82.06
2023-05-10T15:04:28.545Z,82.84
2023-05-10T15:07:00.199Z,82.11
2023-05-10T15:09:28.444Z,83.30
2023-05-10T15:11:56.089Z,83.04
2023-05-10T15:14:23.837Z,82.11
2023-05-10T15:16:51.366Z,82.29
2023-05-10T15:19:21.962Z,82.64
2023-05-10T15:21:49.488Z,81.76
2023-05-10T15:24:16.966Z,80.78
2023-05-10T15:26:44.649Z,80.91
2023-05-10T15:29:12.204Z,81.54
2023-05-10T15:31:40.479Z,81.70
2023-05-10T15:34:08.095Z,82.11
2023-05-10T15:36:36.961Z,82.31
2023-05-10T15:39:04.893Z,82.23
2023-05-10T15:41:32.459Z,81.91
2023-05-10T15:44:00.585Z,81.60
2023-05-10T15:46:28.697Z,81.38
2023-05-10T15:48:57.120Z,83.42
2023-05-10T15:51:24.642Z,82.48
2023-05-10T15:54:05.834Z,80.79
2023-05-10T15:56:34.982Z,82.26
2023-05-10T15:59:02.493Z,80.94
2023-05-10T16:01:30.799Z,82.18
2023-05-10T16:03:58.308Z,80.51
2023-05-10T16:06:26.014Z,81.39
2023-05-10T16:08:55.025Z,82.02
2023-05-10T16:11:22.705Z,81.70
2023-05-10T16:13:50.235Z,81.96
2023-05-10T16:16:18.021Z,81.43
2023-05-10T16:18:45.960Z,81.55
2023-05-10T16:21:13.566Z,81.60
2023-05-10T16:23:41.237Z,82.26
2023-05-10T16:26:13.477Z,82.37
2023-05-10T16:28:41.324Z,82.18
2023-05-10T16:31:09.017Z,81.76
2023-05-10T16:33:37.317Z,82.29
2023-05-10T16:36:06.121Z,83.07
2023-05-10T16:38:33.654Z,83.13
2023-05-10T16:41:03.530Z,82.96
2023-05-10T16:43:33.388Z,83.37
2023-05-10T16:46:00.930Z,82.69
2023-05-10T16:48:28.796Z,83.02
2023-05-10T16:50:56.343Z,83.02
2023-05-10T16:53:23.840Z,83.01
2023-05-10T16:55:51.420Z,82.73
2023-05-10T16:58:18.945Z,82.31
2023-05-10T17:00:48.385Z,82.61
2023-05-10T17:03:15.977Z,82.39
2023-05-10T17:05:43.518Z,82.14
2023-05-10T17:08:11.617Z,82.90
2023-05-10T17:10:40.988Z,82.66
2023-05-10T17:13:10.393Z,82.50
2023-05-10T17:15:38.496Z,83.09
2023-05-10T17:18:08.028Z,83.19
2023-05-10T17:20:35.628Z,83.40
2023-05-10T17:23:03.264Z,82.92
2023-05-10T17:25:30.752Z,83.83
2023-05-10T17:27:58.237Z,84.07
2023-05-10T17:30:28.078Z,84.06
2023-05-10T17:32:56.301Z,84.12
2023-05-10T17:35:28.111Z,84.81
2023-05-10T17:37:55.779Z,84.05
2023-05-10T17:40:23.320Z,83.87
2023-05-10T17:42:51.983Z,84.81
2023-05-10T17:45:21.790Z,84.54
2023-05-10T17:47:49.460Z,84.06
2023-05-10T17:50:17.034Z,84.56
2023-05-10T17:52:46.806Z,84.65
2023-05-10T17:55:14.517Z,85.26
2023-05-10T17:57:42.198Z,85.69
2023-05-10T18:00:10.946Z,85.80
2023-05-10T18:02:41.320Z,85.80
2023-05-10T18:05:09.516Z,85.89
2023-05-10T18:07:37.198Z,86.79
2023-05-10T18:10:08.918Z,86.93
2023-05-10T18:12:36.448Z,87.03
2023-05-10T18:15:04.735Z,87.99
2023-05-10T18:17:33.491Z,87.68
2023-05-10T18:20:13.566Z,88.01
2023-05-10T18:22:41.160Z,87.89
2023-05-10T18:25:10.743Z,87.89
2023-05-10T18:27:39.373Z,87.51
2023-05-10T18:30:10.043Z,87.24
2023-05-10T18:32:38.449Z,87.05
2023-05-10T18:35:06.918Z,86.98
2023-05-10T18:38:00.613Z,87.05
2023-05-10T18:40:29.629Z,87.07
2023-05-10T18:42:58.218Z,87.12
2023-05-10T18:45:25.720Z,86.49
2023-05-10T18:47:53.285Z,86.88
2023-05-10T18:50:20.944Z,87.39
2023-05-10T18:52:50.585Z,88.10
2023-05-10T18:55:18.462Z,87.87
2023-05-10T18:57:49.563Z,88.29
2023-05-10T19:00:18.632Z,88.27
2023-05-10T19:02:48.304Z,87.92
2023-05-10T19:05:16.581Z,87.96
2023-05-10T19:07:44.333Z,88.32
2023-05-10T19:10:13.415Z,88.41
2023-05-10T19:12:42.186Z,88.62
2023-05-10T19:15:11.730Z,88.29
2023-05-10T19:17:41.102Z,88.50
2023-05-10T19:20:10.572Z,88.28
2023-05-10T19:22:54.186Z,88.10
2023-05-10T19:25:29.324Z,87.83
2023-05-10T19:27:57.780Z,88.33
2023-05-10T19:30:28.619Z,88.56
2023-05-10T19:32:56.415Z,88.41
2023-05-10T19:35:24.477Z,88.65
2023-05-10T19:37:52.204Z,88.33
2023-05-10T19:40:19.676Z,88.60
2023-05-10T19:42:47.293Z,88.56
2023-05-10T19:45:15.789Z,88.40
2023-05-10T19:47:44.989Z,88.65
2023-05-10T19:50:13.873Z,88.50
2023-05-10T19:52:41.460Z,88.82
2023-05-10T19:55:09.476Z,88.88
2023-05-10T19:57:36.968Z,89.12
2023-05-10T20:00:06.690Z,89.44
2023-05-10T20:02:38.768Z,89.31
2023-05-10T20:05:08.862Z,90.15
2023-05-10T20:07:37.428Z,89.75
2023-05-10T20:10:05.440Z,89.12
2023-05-10T20:12:33.042Z,89.69
2023-05-10T20:15:00.589Z,89.50
2023-05-10T20:17:28.140Z,89.81
2023-05-10T20:19:55.738Z,90.14
2023-05-10T20:22:24.715Z,90.15
2023-05-10T20:24:53.798Z,90.25
2023-05-10T20:27:23.252Z,89.51
2023-05-10T20:29:50.715Z,89.45
2023-05-10T20:32:18.189Z,89.50
2023-05-10T20:34:45.706Z,89.03
2023-05-10T20:37:13.258Z,89.13
2023-05-10T20:39:42.080Z,89.47
2023-05-10T20:42:09.578Z,89.49
2023-05-10T20:44:37.287Z,89.56
2023-05-10T20:47:04.821Z,89.74
2023-05-10T20:49:32.346Z,89.46
2023-05-10T20:52:00.393Z,89.25
2023-05-10T20:54:29.121Z,89.48
2023-05-10T20:56:58.020Z,89.66
2023-05-10T20:59:25.532Z,89.66
2023-05-10T21:01:53.116Z,89.69
2023-05-10T21:04:21.248Z,89.64
2023-05-10T21:06:48.807Z,89.81
2023-05-10T21:09:17.008Z,89.18
2023-05-10T21:11:44.676Z,88.92
2023-05-10T21:14:13.472Z,88.75
2023-05-10T21:16:41.225Z,89.02
2023-05-10T21:19:08.933Z,88.96
2023-05-10T21:21:36.643Z,89.42
2023-05-10T21:24:04.567Z,89.37
2023-05-10T21:26:32.169Z,89.62
2023-05-10T21:28:59.655Z,89.85
2023-05-10T21:31:28.535Z,90.11
2023-05-10T21:33:56.920Z,90.73
2023-05-10T21:36:26.052Z,90.87
2023-05-10T21:38:55.290Z,91.15
2023-05-10T21:41:22.806Z,91.73
2023-05-10T21:43:50.330Z,92.00
2023-05-10T21:46:17.877Z,91.68
2023-05-10T21:48:46.921Z,92.28
2023-05-10T21:51:15.453Z,91.81
2023-05-10T21:53:45.369Z,91.34
2023-05-10T21:56:12.906Z,90.88
2023-05-10T21:58:40.634Z,90.78
2023-05-10T22:01:08.248Z,90.91
2023-05-10T22:03:35.792Z,90.88
2023-05-10T22:06:05.190Z,90.93
2023-05-10T22:08:32.651Z,91.09
2023-05-10T22:11:00.148Z,91.09
2023-05-10T22:13:27.705Z,91.07
2023-05-10T22:15:55.218Z,90.15
2023-05-10T22:18:22.717Z,90.24
2023-05-10T22:20:50.268Z,90.58
2023-05-10T22:23:19.089Z,90.44
2023-05-10T22:25:46.576Z,90.54
2023-05-10T22:28:14.047Z,90.28
2023-05-10T22:30:42.446Z,90.31
2023-05-10T22:33:09.924Z,90.66
2023-05-10T22:35:37.438Z,90.38
2023-05-10T22:38:05.048Z,90.15
2023-05-10T22:40:33.855Z,90.27
2023-05-10T22:43:02.054Z,90.38
2023-05-10T22:45:29.574Z,90.34
2023-05-10T22:47:57.526Z,90.71
2023-05-10T22:50:25.084Z,90.33
2023-05-10T22:52:52.653Z,90.68
2023-05-10T22:55:20.364Z,90.90
2023-05-10T22:57:49.238Z,91.10
2023-05-10T23:00:17.628Z,91.29
2023-05-10T23:02:45.798Z,91.01
2023-05-10T23:05:13.726Z,90.28
2023-05-10T23:07:41.476Z,91.03
2023-05-10T23:10:09.446Z,90.71
2023-05-10T23:12:37.135Z,90.86
2023-05-10T23:15:07.126Z,90.70
2023-05-10T23:17:34.676Z,90.50
2023-05-10T23:20:02.236Z,90.86
2023-05-10T23:22:29.806Z,91.44
2023-05-10T23:24:57.408Z,91.31
2023-05-10T23:27:25.055Z,91.15
2023-05-10T23:29:55.581Z,91.44
2023-05-10T23:32:24.613Z,91.69
2023-05-10T23:34:52.152Z,92.13
2023-05-10T23:37:19.699Z,91.74
2023-05-10T23:39:47.711Z,91.40
2023-05-10T23:42:15.191Z,91.28
2023-05-10T23:44:42.656Z,91.13
2023-05-10T23:47:10.160Z,91.01
2023-05-10T23:49:41.967Z,91.17
2023-05-10T23:52:09.545Z,90.67
2023-05-10T23:54:37.043Z,90.43
2023-05-10T23:57:04.559Z,90.70
2023-05-10T23:59:32.058Z,90.41
